createdAt,value
2024-02-21T00:01:37.860Z,4.53
2024-02-21T00:04:23.429Z,3.75
2024-02-21T00:07:09.131Z,3.97
2024-02-21T00:09:54.691Z,3.88
2024-02-21T00:12:40.414Z,3.88
2024-02-21T00:15:26.424Z,3.30
2024-02-21T00:18:12.228Z,3.05
2024-02-21T00:20:58.740Z,2.90
2024-02-21T00:23:51.708Z,4.25
2024-02-21T00:26:37.184Z,3.40
2024-02-21T00:29:22.699Z,3.10
2024-02-21T00:32:08.162Z,3.22
2024-02-21T00:34:53.797Z,3.63
2024-02-21T00:37:39.381Z,4.82
2024-02-21T00:40:25.147Z,4.45
2024-02-21T00:43:10.701Z,2.90
2024-02-21T00:45:56.735Z,3.35
2024-02-21T00:48:42.436Z,2.67
2024-02-21T00:51:27.886Z,3.00
2024-02-21T00:54:13.448Z,3.22
2024-02-21T00:56:58.902Z,2.97
2024-02-21T00:59:44.630Z,3.15
2024-02-21T01:02:32.497Z,3.67
2024-02-21T01:05:18.118Z,3.05
2024-02-21T01:08:04.166Z,4.70
2024-02-21T01:10:49.972Z,3.10
2024-02-21T01:13:35.682Z,4.28
2024-02-21T01:16:21.259Z,3.00
2024-02-21T01:19:06.787Z,4.13
2024-02-21T01:21:52.419Z,3.38
2024-02-21T01:24:37.948Z,3.55
2024-02-21T01:27:23.539Z,4.15
2024-02-21T01:30:10.168Z,3.28
2024-02-21T01:32:55.687Z,2.78
2024-02-21T01:35:41.322Z,6.43
2024-02-21T01:38:27.046Z,3.83
2024-02-21T01:41:12.387Z,3.42
2024-02-21T01:43:59.395Z,3.53
2024-02-21T01:46:45.266Z,3.42
2024-02-21T01:49:31.570Z,3.22
2024-02-21T01:52:18.358Z,3.50
2024-02-21T01:55:04.053Z,3.72
2024-02-21T01:57:49.375Z,3.70
2024-02-21T02:00:35.245Z,3.67
2024-02-21T02:03:20.890Z,4.10
2024-02-21T02:06:07.967Z,3.78
2024-02-21T02:08:55.796Z,4.18
2024-02-21T02:11:41.264Z,3.92
2024-02-21T02:14:27.020Z,3.85
2024-02-21T02:17:13.107Z,4.38
2024-02-21T02:19:58.978Z,5.30
2024-02-21T02:22:45.604Z,4.60
2024-02-21T02:25:31.024Z,3.78
2024-02-21T02:28:16.911Z,5.03
2024-02-21T02:31:02.439Z,4.00
2024-02-21T02:33:49.354Z,4.57
2024-02-21T02:36:35.536Z,4.72
2024-02-21T02:39:21.079Z,3.67
2024-02-21T02:42:06.895Z,4.05
2024-02-21T02:44:52.470Z,3.85
2024-02-21T02:47:38.086Z,4.75
2024-02-21T02:50:27.586Z,4.57
2024-02-21T02:53:13.213Z,4.13
2024-02-21T02:55:58.843Z,4.70
2024-02-21T02:58:45.485Z,4.47
2024-02-21T03:01:35.718Z,3.90
2024-02-21T03:04:21.079Z,4.25
2024-02-21T03:07:06.967Z,3.60
2024-02-21T03:09:53.501Z,3.88
2024-02-21T03:12:39.893Z,3.92
2024-02-21T03:15:25.598Z,3.85
2024-02-21T03:18:11.678Z,3.58
2024-02-21T03:20:57.414Z,2.60
2024-02-21T03:23:42.943Z,3.35
2024-02-21T03:26:28.364Z,3.08
2024-02-21T03:29:14.014Z,3.53
2024-02-21T03:31:59.378Z,3.40
2024-02-21T03:34:45.008Z,2.95
2024-02-21T03:37:30.481Z,4.03
2024-02-21T03:40:16.064Z,3.58
2024-02-21T03:43:01.693Z,3.95
2024-02-21T03:45:47.253Z,4.13
2024-02-21T03:48:32.842Z,3.03
2024-02-21T03:51:18.668Z,3.50
2024-02-21T03:54:03.924Z,3.88
2024-02-21T03:56:50.006Z,3.13
2024-02-21T03:59:35.436Z,2.72
2024-02-21T04:02:21.115Z,3.55
2024-02-21T04:05:07.415Z,2.65
2024-02-21T04:07:54.334Z,3.78
2024-02-21T04:10:40.276Z,2.88
2024-02-21T04:13:26.833Z,3.65
2024-02-21T04:16:12.366Z,2.60
2024-02-21T04:18:58.486Z,3.10
2024-02-21T04:21:43.778Z,4.55
2024-02-21T04:24:29.525Z,3.40
2024-02-21T04:27:14.814Z,3.83
2024-02-21T04:30:00.831Z,2.53
2024-02-21T04:32:46.904Z,3.08
2024-02-21T04:35:32.668Z,2.65
2024-02-21T04:38:18.490Z,2.72
2024-02-21T04:41:15.447Z,4.07
2024-02-21T04:44:05.653Z,2.30
2024-02-21T04:47:02.649Z,2.83
2024-02-21T04:49:56.942Z,2.35
2024-02-21T04:52:47.241Z,2.97
2024-02-21T04:55:39.764Z,2.30
2024-02-21T04:58:29.855Z,2.17
2024-02-21T05:01:17.414Z,3.08
2024-02-21T05:04:18.564Z,2.53
2024-02-21T05:07:06.506Z,2.88
2024-02-21T05:09:51.912Z,2.50
2024-02-21T05:12:37.168Z,2.80
2024-02-21T05:15:22.469Z,3.20
2024-02-21T05:18:08.440Z,2.33
2024-02-21T05:20:54.065Z,3.90
2024-02-21T05:23:40.487Z,3.25
2024-02-21T05:26:27.106Z,2.42
2024-02-21T05:29:12.705Z,2.30
2024-02-21T05:31:58.987Z,2.80
2024-02-21T05:34:44.654Z,1.95
2024-02-21T05:37:30.414Z,2.97
2024-02-21T05:40:15.677Z,2.78
2024-02-21T05:43:01.126Z,3.47
2024-02-21T05:45:46.730Z,2.80
2024-02-21T05:48:34.251Z,2.55
2024-02-21T05:51:21.792Z,2.45
2024-02-21T05:54:08.428Z,4.00
2024-02-21T05:56:54.565Z,4.25
2024-02-21T05:59:41.518Z,2.72
2024-02-21T06:02:27.144Z,2.10
2024-02-21T06:05:12.819Z,3.08
2024-02-21T06:07:58.505Z,2.58
2024-02-21T06:10:44.112Z,2.70
2024-02-21T06:13:29.555Z,2.47
2024-02-21T06:16:15.065Z,1.90
2024-02-21T06:19:00.617Z,2.65
2024-02-21T06:21:46.181Z,3.15
2024-02-21T06:24:31.665Z,1.83
2024-02-21T06:27:17.644Z,2.67
2024-02-21T06:30:04.307Z,2.75
2024-02-21T06:32:49.861Z,1.50
2024-02-21T06:35:35.662Z,1.67
2024-02-21T06:38:21.316Z,1.50
2024-02-21T06:41:07.223Z,1.50
2024-02-21T06:43:52.881Z,1.80
2024-02-21T06:46:38.544Z,1.70
2024-02-21T06:49:24.539Z,1.27
2024-02-21T06:52:10.365Z,1.52
2024-02-21T06:54:55.871Z,1.30
2024-02-21T06:57:41.364Z,1.20
2024-02-21T07:00:31.344Z,1.60
2024-02-21T07:03:17.008Z,1.20
2024-02-21T07:06:02.977Z,1.40
2024-02-21T07:08:48.684Z,1.50
2024-02-21T07:11:34.474Z,1.45
2024-02-21T07:14:20.165Z,1.40
2024-02-21T07:17:05.776Z,1.20
2024-02-21T07:19:51.361Z,2.22
2024-02-21T07:22:36.995Z,1.40
2024-02-21T07:25:22.394Z,1.40
2024-02-21T07:28:08.027Z,1.80
2024-02-21T07:30:53.652Z,1.90
2024-02-21T07:33:39.450Z,1.80
2024-02-21T07:36:31.845Z,1.25
2024-02-21T07:39:17.609Z,1.48
2024-02-21T07:42:03.228Z,1.90
2024-02-21T07:44:48.483Z,1.70
2024-02-21T07:47:34.238Z,1.65
2024-02-21T07:50:19.970Z,1.63
2024-02-21T07:53:05.722Z,2.25
2024-02-21T07:55:51.180Z,2.00
2024-02-21T07:58:36.658Z,2.35
2024-02-21T08:01:22.874Z,2.17
2024-02-21T08:04:08.456Z,2.20
2024-02-21T08:06:57.237Z,2.70
2024-02-21T08:09:42.601Z,2.28
2024-02-21T08:12:28.242Z,1.50
2024-02-21T08:15:13.855Z,2.03
2024-02-21T08:18:02.592Z,2.63
2024-02-21T08:20:48.236Z,1.88
2024-02-21T08:23:33.731Z,1.80
2024-02-21T08:26:19.483Z,1.73
2024-02-21T08:29:05.108Z,2.40
2024-02-21T08:31:50.584Z,2.25
2024-02-21T08:34:36.288Z,2.00
2024-02-21T08:37:22.380Z,2.65
2024-02-21T08:40:10.306Z,1.75
2024-02-21T08:42:56.193Z,1.73
2024-02-21T08:45:41.759Z,2.60
2024-02-21T08:48:27.490Z,2.42
2024-02-21T08:51:13.592Z,2.50
2024-02-21T08:53:59.807Z,1.90
2024-02-21T08:56:45.487Z,1.75
2024-02-21T08:59:31.017Z,2.00
2024-02-21T09:02:20.079Z,2.05
2024-02-21T09:05:08.233Z,1.85
2024-02-21T09:07:53.877Z,1.75
2024-02-21T09:10:41.188Z,2.15
2024-02-21T09:13:26.820Z,1.73
2024-02-21T09:16:15.018Z,1.98
2024-02-21T09:19:01.818Z,2.10
2024-02-21T09:21:48.146Z,1.70
2024-02-21T09:24:33.410Z,2.10
2024-02-21T09:27:19.042Z,1.33
2024-02-21T09:30:06.336Z,2.35
2024-02-21T09:32:51.874Z,2.28
2024-02-21T09:35:38.197Z,2.05
2024-02-21T09:38:24.023Z,1.80
2024-02-21T09:41:26.139Z,2.30
2024-02-21T09:44:15.363Z,1.95
2024-02-21T09:47:07.999Z,3.75
2024-02-21T09:49:55.475Z,1.48
2024-02-21T09:52:42.645Z,1.52
2024-02-21T09:55:30.495Z,1.58
2024-02-21T09:58:16.984Z,1.52
2024-02-21T10:01:06.158Z,1.40
2024-02-21T10:03:59.094Z,1.45
2024-02-21T10:06:45.479Z,2.22
2024-02-21T10:09:31.507Z,0.93
2024-02-21T10:12:20.302Z,1.23
2024-02-21T10:15:07.604Z,1.27
2024-02-21T10:18:01.342Z,1.85
2024-02-21T10:20:46.746Z,2.08
2024-02-21T10:23:48.983Z,1.58
2024-02-21T10:26:34.522Z,1.90
2024-02-21T10:29:20.150Z,0.65
2024-02-21T10:32:09.515Z,1.10
2024-02-21T10:35:05.864Z,1.38
2024-02-21T10:37:51.849Z,1.23
2024-02-21T10:40:37.413Z,1.15
2024-02-21T10:43:23.591Z,0.80
2024-02-21T10:46:13.294Z,0.82
2024-02-21T10:49:08.424Z,1.17
2024-02-21T10:52:23.901Z,1.77
2024-02-21T10:55:13.237Z,1.50
2024-02-21T10:57:59.607Z,0.80
2024-02-21T11:00:46.056Z,0.88
2024-02-21T11:03:32.655Z,1.23
2024-02-21T11:06:20.086Z,0.93
2024-02-21T11:09:07.266Z,0.93
2024-02-21T11:11:52.992Z,0.98
2024-02-21T11:14:40.932Z,0.90
2024-02-21T11:17:28.309Z,1.05
2024-02-21T11:20:15.052Z,0.63
2024-02-21T11:23:00.584Z,0.82
2024-02-21T11:25:45.934Z,0.60
2024-02-21T11:28:31.437Z,1.33
2024-02-21T11:31:17.313Z,1.00
2024-02-21T11:34:03.055Z,0.52
2024-02-21T11:36:52.724Z,0.85
2024-02-21T11:39:39.774Z,0.77
2024-02-21T11:42:30.144Z,0.70
2024-02-21T11:45:17.050Z,0.60
2024-02-21T11:48:05.167Z,0.60
2024-02-21T11:50:57.896Z,0.55
2024-02-21T11:53:54.735Z,1.00
2024-02-21T11:59:33.540Z,1.02
2024-02-21T12:02:20.615Z,0.55
2024-02-21T12:05:06.782Z,0.40
2024-02-21T12:07:53.763Z,0.60
2024-02-21T12:10:39.954Z,0.60
2024-02-21T12:13:26.476Z,0.80
2024-02-21T12:16:12.504Z,0.50
2024-02-21T12:18:59.542Z,0.70
2024-02-21T12:21:46.052Z,0.85
2024-02-21T12:24:32.093Z,0.43
2024-02-21T12:27:17.480Z,0.63
2024-02-21T12:30:04.277Z,0.60
2024-02-21T12:32:50.648Z,0.60
2024-02-21T12:35:36.254Z,0.70
2024-02-21T12:38:22.128Z,0.88
2024-02-21T12:41:08.809Z,0.80
2024-02-21T12:43:54.988Z,0.60
2024-02-21T12:46:43.457Z,0.30
2024-02-21T12:49:31.160Z,0.70
2024-02-21T12:52:17.869Z,0.50
2024-02-21T12:55:03.753Z,0.50
2024-02-21T12:57:49.926Z,0.30
2024-02-21T13:00:37.161Z,0.75
2024-02-21T13:03:22.906Z,0.60
2024-02-21T13:06:11.690Z,0.57
2024-02-21T13:08:57.076Z,0.40
2024-02-21T13:11:45.736Z,0.60
2024-02-21T13:14:31.467Z,0.60
2024-02-21T13:17:17.973Z,0.55
2024-02-21T13:20:04.130Z,0.30
2024-02-21T13:22:49.767Z,0.30
2024-02-21T13:25:35.611Z,0.77
2024-02-21T13:28:21.302Z,0.35
2024-02-21T13:31:07.020Z,0.20
2024-02-21T13:33:53.412Z,0.45
2024-02-21T13:36:38.842Z,0.45
2024-02-21T13:39:24.385Z,0.60
2024-02-21T13:42:09.902Z,0.35
2024-02-21T13:44:55.605Z,0.30
2024-02-21T13:47:41.477Z,0.40
2024-02-21T13:50:32.273Z,0.70
2024-02-21T13:53:19.694Z,0.35
2024-02-21T13:56:05.713Z,0.40
2024-02-21T13:58:51.771Z,0.63
2024-02-21T14:01:38.667Z,0.43
2024-02-21T14:04:24.119Z,0.60
2024-02-21T14:07:09.836Z,0.80
2024-02-21T14:09:55.431Z,0.40
2024-02-21T14:12:41.361Z,0.60
2024-02-21T14:15:27.182Z,0.60
2024-02-21T14:18:12.671Z,0.65
2024-02-21T14:20:58.515Z,0.60
2024-02-21T14:23:44.319Z,0.65
2024-02-21T14:26:32.136Z,0.57
2024-02-21T14:29:17.629Z,0.88
2024-02-21T14:32:03.474Z,0.88
2024-02-21T14:34:50.288Z,0.60
2024-02-21T14:37:35.817Z,0.57
2024-02-21T14:40:22.156Z,0.60
2024-02-21T14:43:08.190Z,0.45
2024-02-21T14:45:53.494Z,0.47
2024-02-21T14:48:39.565Z,0.50
2024-02-21T14:51:25.402Z,0.50
2024-02-21T14:54:11.688Z,0.45
2024-02-21T14:56:57.311Z,0.52
2024-02-21T14:59:43.056Z,0.30
2024-02-21T15:02:29.685Z,1.52
2024-02-21T15:05:15.793Z,0.50
2024-02-21T15:08:01.534Z,0.40
2024-02-21T15:10:47.253Z,0.75
2024-02-21T15:13:32.802Z,0.50
2024-02-21T15:16:18.300Z,1.10
2024-02-21T15:19:05.896Z,0.50
2024-02-21T15:21:55.864Z,0.70
2024-02-21T15:24:52.882Z,0.68
2024-02-21T15:27:45.414Z,0.38
2024-02-21T15:30:37.239Z,0.75
2024-02-21T15:33:22.774Z,0.68
2024-02-21T15:36:08.725Z,0.90
2024-02-21T15:38:54.522Z,0.50
2024-02-21T15:41:40.303Z,0.70
2024-02-21T15:44:26.077Z,1.52
2024-02-21T15:47:11.597Z,0.80
2024-02-21T15:49:57.858Z,0.73
2024-02-21T15:52:43.687Z,1.30
2024-02-21T15:55:30.284Z,0.47
2024-02-21T15:58:16.482Z,0.73
2024-02-21T16:01:02.151Z,0.63
2024-02-21T16:03:48.057Z,1.30
2024-02-21T16:06:34.183Z,0.70
2024-02-21T16:09:19.552Z,0.65
2024-02-21T16:12:06.502Z,0.60
2024-02-21T16:14:52.423Z,0.63
2024-02-21T16:17:40.786Z,1.10
2024-02-21T16:20:26.467Z,0.80
2024-02-21T16:23:12.353Z,0.90
2024-02-21T16:25:58.269Z,0.90
2024-02-21T16:28:44.083Z,0.50
2024-02-21T16:31:30.744Z,0.90
2024-02-21T16:34:17.954Z,0.73
2024-02-21T16:37:03.362Z,0.70
2024-02-21T16:39:49.113Z,0.80
2024-02-21T16:42:34.929Z,0.63
2024-02-21T16:45:21.896Z,0.77
2024-02-21T16:48:07.791Z,0.70
2024-02-21T16:50:59.962Z,0.57
2024-02-21T16:53:47.279Z,1.38
2024-02-21T16:56:32.777Z,0.63
2024-02-21T16:59:19.588Z,0.98
2024-02-21T17:02:05.837Z,0.77
2024-02-21T17:04:52.994Z,0.85
2024-02-21T17:07:38.955Z,1.15
2024-02-21T17:10:24.700Z,0.68
2024-02-21T17:13:10.577Z,0.98
2024-02-21T17:15:56.822Z,1.00
2024-02-21T17:18:42.217Z,0.70
2024-02-21T17:21:29.289Z,1.02
2024-02-21T17:24:14.876Z,1.20
2024-02-21T17:27:00.239Z,1.20
2024-02-21T17:29:46.276Z,1.00
2024-02-21T17:32:32.018Z,0.80
2024-02-21T17:35:17.551Z,0.88
2024-02-21T17:38:07.657Z,1.30
2024-02-21T17:40:53.521Z,1.10
2024-02-21T17:43:39.234Z,0.68
2024-02-21T17:46:25.940Z,0.80
2024-02-21T17:49:12.116Z,0.88
2024-02-21T17:51:58.308Z,0.88
2024-02-21T17:54:45.859Z,0.90
2024-02-21T17:57:31.496Z,0.80
2024-02-21T18:00:17.610Z,0.75
2024-02-21T18:03:04.284Z,1.00
2024-02-21T18:05:50.037Z,1.00
2024-02-21T18:08:36.148Z,1.20
2024-02-21T18:11:21.521Z,0.80
2024-02-21T18:14:08.989Z,1.65
2024-02-21T18:16:54.992Z,1.85
2024-02-21T18:19:40.962Z,1.20
2024-02-21T18:22:27.906Z,1.25
2024-02-21T18:25:14.016Z,1.48
2024-02-21T18:27:59.723Z,2.10
2024-02-21T18:30:45.950Z,1.80
2024-02-21T18:33:31.493Z,1.00
2024-02-21T18:36:16.723Z,1.15
2024-02-21T18:39:04.544Z,2.05
2024-02-21T18:41:50.246Z,1.10
2024-02-21T18:44:36.073Z,1.00
2024-02-21T18:47:21.865Z,1.73
2024-02-21T18:50:07.979Z,1.20
2024-02-21T18:52:54.612Z,1.27
2024-02-21T18:55:40.224Z,1.38
2024-02-21T18:58:26.040Z,1.88
2024-02-21T19:01:11.695Z,1.90
2024-02-21T19:03:58.096Z,1.80
2024-02-21T19:06:44.561Z,1.20
2024-02-21T19:09:29.976Z,1.90
2024-02-21T19:12:15.677Z,3.33
2024-02-21T19:15:01.312Z,2.40
2024-02-21T19:17:46.588Z,3.00
2024-02-21T19:20:32.167Z,2.80
2024-02-21T19:23:18.048Z,3.17
2024-02-21T19:26:07.188Z,2.30
2024-02-21T19:28:54.822Z,4.72
2024-02-21T19:31:41.052Z,2.45
2024-02-21T19:34:29.186Z,2.75
2024-02-21T19:37:15.110Z,2.72
2024-02-21T19:40:02.870Z,2.65
2024-02-21T19:42:48.560Z,2.35
2024-02-21T19:45:35.578Z,3.38
2024-02-21T19:48:21.639Z,4.35
2024-02-21T19:51:07.406Z,4.65
2024-02-21T19:54:04.993Z,3.75
2024-02-21T19:56:58.155Z,2.88
2024-02-21T19:59:44.200Z,3.72
2024-02-21T20:02:29.582Z,3.03
2024-02-21T20:05:16.007Z,3.13
2024-02-21T20:08:01.910Z,4.97
2024-02-21T20:10:47.532Z,2.50
2024-02-21T20:13:33.339Z,4.00
2024-02-21T20:16:19.449Z,2.85
2024-02-21T20:19:06.012Z,3.22
2024-02-21T20:21:51.800Z,3.20
2024-02-21T20:24:40.744Z,3.88
2024-02-21T20:27:42.644Z,2.85
2024-02-21T20:30:28.506Z,2.75
2024-02-21T20:33:14.572Z,3.17
2024-02-21T20:36:00.451Z,3.35
2024-02-21T20:38:46.194Z,4.43
2024-02-21T20:41:31.615Z,2.33
2024-02-21T20:44:17.856Z,3.08
2024-02-21T20:47:04.313Z,3.03
2024-02-21T20:49:51.225Z,2.65
2024-02-21T20:52:37.453Z,2.83
2024-02-21T20:55:25.680Z,2.65
2024-02-21T20:58:11.597Z,3.53
2024-02-21T21:00:57.458Z,2.97
2024-02-21T21:03:42.900Z,3.47
2024-02-21T21:06:28.500Z,3.60
2024-02-21T21:09:14.999Z,3.40
2024-02-21T21:12:00.634Z,2.60
2024-02-21T21:14:47.163Z,2.70
2024-02-21T21:17:32.848Z,3.83
2024-02-21T21:20:19.059Z,3.33
2024-02-21T21:23:05.549Z,2.45
2024-02-21T21:25:56.177Z,2.95
2024-02-21T21:28:42.411Z,2.50
2024-02-21T21:31:28.521Z,3.42
2024-02-21T21:34:14.634Z,4.60
2024-02-21T21:37:00.429Z,2.58
2024-02-21T21:39:51.199Z,2.20
2024-02-21T21:42:37.546Z,2.65
2024-02-21T21:45:23.819Z,2.72
2024-02-21T21:48:09.994Z,2.70
2024-02-21T21:50:56.866Z,2.30
2024-02-21T21:53:44.422Z,2.45
2024-02-21T21:56:33.144Z,3.28
2024-02-21T21:59:19.952Z,3.25
2024-02-21T22:02:06.473Z,2.10
2024-02-21T22:04:52.670Z,2.25
2024-02-21T22:07:38.773Z,2.08
2024-02-21T22:10:25.796Z,2.25
2024-02-21T22:13:11.422Z,1.92
2024-02-21T22:15:57.620Z,2.33
2024-02-21T22:18:43.718Z,2.10
2024-02-21T22:21:31.445Z,2.15
2024-02-21T22:24:18.746Z,3.00
2024-02-21T22:27:05.148Z,2.22
2024-02-21T22:29:51.913Z,2.42
2024-02-21T22:32:37.624Z,3.17
2024-02-21T22:35:23.238Z,4.05
2024-02-21T22:38:09.385Z,1.90
2024-02-21T22:40:55.103Z,2.00
2024-02-21T22:43:40.688Z,2.45
2024-02-21T22:46:26.339Z,2.25
2024-02-21T22:49:13.158Z,2.85
2024-02-21T22:51:59.102Z,2.60
2024-02-21T22:54:44.533Z,2.83
2024-02-21T22:57:30.121Z,2.95
2024-02-21T23:00:17.236Z,2.83
2024-02-21T23:03:03.008Z,2.83
2024-02-21T23:05:49.446Z,3.35
2024-02-21T23:08:35.142Z,2.92
2024-02-21T23:11:21.095Z,3.03
2024-02-21T23:14:06.998Z,3.95
2024-02-21T23:16:52.720Z,2.67
2024-02-21T23:19:38.174Z,4.47
2024-02-21T23:22:23.687Z,3.13
2024-02-21T23:25:12.630Z,3.50
2024-02-21T23:27:58.195Z,3.42
2024-02-21T23:30:44.066Z,3.03
2024-02-21T23:33:35.350Z,4.22
2024-02-21T23:36:21.453Z,3.67
2024-02-21T23:39:07.371Z,4.32
2024-02-21T23:41:53.271Z,4.00
2024-02-21T23:44:38.777Z,3.83
2024-02-21T23:47:24.412Z,3.67
2024-02-21T23:50:10.705Z,3.78
2024-02-21T23:52:56.482Z,3.78
2024-02-21T23:55:42.465Z,4.30
2024-02-21T23:58:28.268Z,3.63
